In Rescue
 
Open Full Screen Window  High Contrast Mode
Wind Gusting 00 knots
07
November 29, 2022 10:27 AM EST
Weather Information
Wind Direction
  140 °
Wind Speed
  07 kt (8 mph)
Wind Gust
  00 kt (0 mph)
Altimeter
29.85 in
Visibility
10 SM
Temperature
03° C
37° F
Dewpoint
01° C
34° F
Humidity
87%
Sky Condition
Broken @ 12,000 ft
Broken @ 2,100 ft
MVFR

METAR KCAD 291527Z AUTO 14007KT 10SM BKN021 BKN120 03/01 A2985 RMK AO2 T00330009

FAA Disclaimer: The data displayed is for advisory purposes only and is not to be used for flight planning or operations.